sensor_id;sensor_type;location;lat;lon;timestamp;pressure;altitude;pressure_sealevel;temperature;humidity
73981;BME280;62348;51.412;5.436;2022-12-05T00:00:11;101586.59;;;1.66;89.36
73981;BME280;62348;51.412;5.436;2022-12-05T00:02:36;101593.78;;;1.66;89.38
73981;BME280;62348;51.412;5.436;2022-12-05T00:05:02;101583.94;;;1.66;89.91
73981;BME280;62348;51.412;5.436;2022-12-05T00:07:28;101588.44;;;1.66;89.66
73981;BME280;62348;51.412;5.436;2022-12-05T00:09:53;101582.94;;;1.67;89.71
73981;BME280;62348;51.412;5.436;2022-12-05T00:12:19;101585.59;;;1.67;89.94
73981;BME280;62348;51.412;5.436;2022-12-05T00:14:44;101589.91;;;1.68;89.92
73981;BME280;62348;51.412;5.436;2022-12-05T00:17:09;101589.09;;;1.68;89.90
73981;BME280;62348;51.412;5.436;2022-12-05T00:19:35;101590.72;;;1.69;89.95
73981;BME280;62348;51.412;5.436;2022-12-05T00:22:00;101590.72;;;1.69;89.71
73981;BME280;62348;51.412;5.436;2022-12-05T00:24:26;101591.75;;;1.68;89.87
73981;BME280;62348;51.412;5.436;2022-12-05T00:26:51;101590.06;;;1.67;89.78
73981;BME280;62348;51.412;5.436;2022-12-05T00:29:16;101590.06;;;1.67;90.20
73981;BME280;62348;51.412;5.436;2022-12-05T00:31:42;101593.78;;;1.66;90.17
73981;BME280;62348;51.412;5.436;2022-12-05T00:34:08;101583.94;;;1.66;90.10
73981;BME280;62348;51.412;5.436;2022-12-05T00:36:34;101591.75;;;1.68;90.16
73981;BME280;62348;51.412;5.436;2022-12-05T00:39:03;101587.22;;;1.68;90.28
73981;BME280;62348;51.412;5.436;2022-12-05T00:41:29;101585.38;;;1.69;90.39
73981;BME280;62348;51.412;5.436;2022-12-05T00:43:57;101588.06;;;1.69;90.53
73981;BME280;62348;51.412;5.436;2022-12-05T00:46:25;101583.41;;;1.71;90.33
73981;BME280;62348;51.412;5.436;2022-12-05T00:48:52;101581.09;;;1.68;90.69
73981;BME280;62348;51.412;5.436;2022-12-05T00:51:21;101586.25;;;1.69;90.65
73981;BME280;62348;51.412;5.436;2022-12-05T00:53:47;101590.38;;;1.72;90.83
73981;BME280;62348;51.412;5.436;2022-12-05T00:56:16;101588.53;;;1.72;90.56
73981;BME280;62348;51.412;5.436;2022-12-05T00:58:42;101585.03;;;1.72;90.73
73981;BME280;62348;51.412;5.436;2022-12-05T01:01:29;101588.16;;;1.75;90.86
73981;BME280;62348;51.412;5.436;2022-12-05T01:03:57;101591.00;;;1.74;90.78
73981;BME280;62348;51.412;5.436;2022-12-05T01:06:24;101590.19;;;1.73;90.92
73981;BME280;62348;51.412;5.436;2022-12-05T01:08:53;101597.38;;;1.73;91.06
73981;BME280;62348;51.412;5.436;2022-12-05T01:11:19;101588.34;;;1.74;90.82
73981;BME280;62348;51.412;5.436;2022-12-05T01:13:45;101599.00;;;1.74;91.05
73981;BME280;62348;51.412;5.436;2022-12-05T01:16:30;101595.53;;;1.73;91.08
73981;BME280;62348;51.412;5.436;2022-12-05T01:18:58;101599.19;;;1.72;91.10
73981;BME280;62348;51.412;5.436;2022-12-05T01:21:24;101604.50;;;1.72;91.26
73981;BME280;62348;51.412;5.436;2022-12-05T01:23:49;101605.38;;;1.73;91.62
73981;BME280;62348;51.412;5.436;2022-12-05T01:26:17;101600.84;;;1.73;91.54
73981;BME280;62348;51.412;5.436;2022-12-05T01:28:43;101604.16;;;1.75;91.18
73981;BME280;62348;51.412;5.436;2022-12-05T01:31:25;101608.69;;;1.75;91.45
73981;BME280;62348;51.412;5.436;2022-12-05T01:33:53;101600.50;;;1.77;91.59
73981;BME280;62348;51.412;5.436;2022-12-05T01:36:19;101604.16;;;1.75;91.44
73981;BME280;62348;51.412;5.436;2022-12-05T01:38:45;101606.66;;;1.77;91.71
73981;BME280;62348;51.412;5.436;2022-12-05T01:41:16;101604.81;;;1.78;91.52
73981;BME280;62348;51.412;5.436;2022-12-05T01:46:51;101614.47;;;1.79;91.68
73981;BME280;62348;51.412;5.436;2022-12-05T01:49:24;101617.97;;;1.79;91.91
73981;BME280;62348;51.412;5.436;2022-12-05T01:51:54;101609.97;;;1.79;91.61
73981;BME280;62348;51.412;5.436;2022-12-05T01:54:21;101614.25;;;1.80;91.76
73981;BME280;62348;51.412;5.436;2022-12-05T01:56:59;101617.78;;;1.81;91.93
73981;BME280;62348;51.412;5.436;2022-12-05T01:59:25;101622.09;;;1.82;91.63
73981;BME280;62348;51.412;5.436;2022-12-05T02:01:53;101618.59;;;1.81;91.76
73981;BME280;62348;51.412;5.436;2022-12-05T02:04:19;101621.25;;;1.81;91.74
73981;BME280;62348;51.412;5.436;2022-12-05T02:06:45;101620.44;;;1.81;91.85
73981;BME280;62348;51.412;5.436;2022-12-05T02:09:10;101623.13;;;1.81;91.91
73981;BME280;62348;51.412;5.436;2022-12-05T02:11:44;101622.09;;;1.82;91.93
73981;BME280;62348;51.412;5.436;2022-12-05T02:14:27;101633.41;;;1.84;91.94
73981;BME280;62348;51.412;5.436;2022-12-05T02:17:05;101630.94;;;1.82;92.11
73981;BME280;62348;51.412;5.436;2022-12-05T02:22:22;101621.91;;;1.83;92.22
73981;BME280;62348;51.412;5.436;2022-12-05T02:30:55;101617.38;;;1.84;92.25
73981;BME280;62348;51.412;5.436;2022-12-05T02:44:16;101614.72;;;1.84;92.92
73981;BME280;62348;51.412;5.436;2022-12-05T02:46:45;101616.56;;;1.83;92.64
73981;BME280;62348;51.412;5.436;2022-12-05T02:49:17;101612.69;;;1.86;92.89
73981;BME280;62348;51.412;5.436;2022-12-05T02:51:46;101611.88;;;1.85;92.76
73981;BME280;62348;51.412;5.436;2022-12-05T02:54:16;101618.03;;;1.86;92.41
73981;BME280;62348;51.412;5.436;2022-12-05T02:56:44;101620.91;;;1.84;92.92
73981;BME280;62348;51.412;5.436;2022-12-05T02:59:10;101618.25;;;1.84;92.93
73981;BME280;62348;51.412;5.436;2022-12-05T03:01:36;101619.69;;;1.87;93.17
73981;BME280;62348;51.412;5.436;2022-12-05T03:04:03;101627.06;;;1.85;93.11
73981;BME280;62348;51.412;5.436;2022-12-05T03:06:37;101623.38;;;1.86;93.26
73981;BME280;62348;51.412;5.436;2022-12-05T03:09:15;101622.19;;;1.88;93.31
73981;BME280;62348;51.412;5.436;2022-12-05T03:11:46;101629.38;;;1.88;93.22
73981;BME280;62348;51.412;5.436;2022-12-05T03:14:19;101625.69;;;1.89;93.01
73981;BME280;62348;51.412;5.436;2022-12-05T03:16:52;101625.69;;;1.89;93.20
73981;BME280;62348;51.412;5.436;2022-12-05T03:22:19;101628.34;;;1.89;93.44
73981;BME280;62348;51.412;5.436;2022-12-05T03:24:49;101639.00;;;1.89;93.22
73981;BME280;62348;51.412;5.436;2022-12-05T03:27:24;101621.38;;;1.88;93.16
73981;BME280;62348;51.412;5.436;2022-12-05T03:30:02;101626.50;;;1.89;93.59
73981;BME280;62348;51.412;5.436;2022-12-05T03:38:11;101618.31;;;1.91;93.65
73981;BME280;62348;51.412;5.436;2022-12-05T03:40:49;101617.09;;;1.93;93.41
73981;BME280;62348;51.412;5.436;2022-12-05T03:48:30;101612.97;;;1.91;93.34
73981;BME280;62348;51.412;5.436;2022-12-05T03:50:58;101613.81;;;1.91;93.47
73981;BME280;62348;51.412;5.436;2022-12-05T03:53:28;101616.28;;;1.93;93.52
73981;BME280;62348;51.412;5.436;2022-12-05T03:56:07;101615.66;;;1.91;93.39
73981;BME280;62348;51.412;5.436;2022-12-05T03:58:39;101615.66;;;1.91;93.09
73981;BME280;62348;51.412;5.436;2022-12-05T04:01:06;101621.81;;;1.91;93.20
73981;BME280;62348;51.412;5.436;2022-12-05T04:03:42;101622.44;;;1.93;92.82
73981;BME280;62348;51.412;5.436;2022-12-05T04:06:20;101618.13;;;1.92;93.19
73981;BME280;62348;51.412;5.436;2022-12-05T04:08:52;101617.31;;;1.92;93.08
73981;BME280;62348;51.412;5.436;2022-12-05T04:11:22;101616.28;;;1.93;93.45
73981;BME280;62348;51.412;5.436;2022-12-05T04:13:52;101618.97;;;1.93;93.17
73981;BME280;62348;51.412;5.436;2022-12-05T04:16:26;101617.97;;;1.94;92.86
73981;BME280;62348;51.412;5.436;2022-12-05T04:19:28;101623.13;;;1.95;93.00
73981;BME280;62348;51.412;5.436;2022-12-05T04:22:15;101624.13;;;1.94;92.90
73981;BME280;62348;51.412;5.436;2022-12-05T04:24:41;101627.59;;;1.95;93.03
73981;BME280;62348;51.412;5.436;2022-12-05T04:27:37;101622.91;;;1.97;93.02
73981;BME280;62348;51.412;5.436;2022-12-05T04:30:06;101625.78;;;1.95;92.84
73981;BME280;62348;51.412;5.436;2022-12-05T04:32:45;101628.88;;;1.99;92.89
73981;BME280;62348;51.412;5.436;2022-12-05T04:35:26;101630.09;;;1.97;92.82
73981;BME280;62348;51.412;5.436;2022-12-05T04:37:59;101632.75;;;1.97;93.02
73981;BME280;62348;51.412;5.436;2022-12-05T04:40:34;101628.25;;;1.97;92.81
73981;BME280;62348;51.412;5.436;2022-12-05T04:43:03;101630.09;;;1.97;92.84
73981;BME280;62348;51.412;5.436;2022-12-05T04:45:31;101632.56;;;1.98;93.03
73981;BME280;62348;51.412;5.436;2022-12-05T04:48:01;101630.72;;;1.99;92.77
73981;BME280;62348;51.412;5.436;2022-12-05T04:50:31;101632.41;;;2.00;92.46
73981;BME280;62348;51.412;5.436;2022-12-05T04:52:58;101636.72;;;2.01;92.38
73981;BME280;62348;51.412;5.436;2022-12-05T04:55:25;101643.88;;;2.00;92.50
73981;BME280;62348;51.412;5.436;2022-12-05T04:58:10;101636.88;;;1.99;92.48
73981;BME280;62348;51.412;5.436;2022-12-05T05:00:46;101642.03;;;2.01;92.82
73981;BME280;62348;51.412;5.436;2022-12-05T05:03:24;101650.69;;;2.03;92.62
73981;BME280;62348;51.412;5.436;2022-12-05T05:05:53;101641.69;;;2.04;92.63
73981;BME280;62348;51.412;5.436;2022-12-05T05:08:22;101638.38;;;2.02;92.79
73981;BME280;62348;51.412;5.436;2022-12-05T05:10:56;101645.34;;;2.03;92.46
73981;BME280;62348;51.412;5.436;2022-12-05T05:13:25;101645.16;;;2.04;92.74
73981;BME280;62348;51.412;5.436;2022-12-05T05:15:51;101641.69;;;2.04;92.82
73981;BME280;62348;51.412;5.436;2022-12-05T05:18:16;101639.84;;;2.04;92.61
73981;BME280;62348;51.412;5.436;2022-12-05T05:20:42;101645.00;;;2.06;92.85
73981;BME280;62348;51.412;5.436;2022-12-05T05:23:07;101650.31;;;2.06;92.89
73981;BME280;62348;51.412;5.436;2022-12-05T05:25:33;101646.66;;;2.07;92.74
73981;BME280;62348;51.412;5.436;2022-12-05T05:27:58;101645.63;;;2.08;92.54
73981;BME280;62348;51.412;5.436;2022-12-05T05:30:24;101655.66;;;2.06;92.65
73981;BME280;62348;51.412;5.436;2022-12-05T05:32:49;101654.66;;;2.07;92.76
73981;BME280;62348;51.412;5.436;2022-12-05T05:35:15;101655.47;;;2.07;92.77
73981;BME280;62348;51.412;5.436;2022-12-05T05:37:41;101649.31;;;2.07;92.89
73981;BME280;62348;51.412;5.436;2022-12-05T05:40:08;101644.00;;;2.07;92.52
73981;BME280;62348;51.412;5.436;2022-12-05T05:42:34;101654.66;;;2.07;92.57
73981;BME280;62348;51.412;5.436;2022-12-05T05:45:00;101649.31;;;2.07;92.92
73981;BME280;62348;51.412;5.436;2022-12-05T05:47:25;101660.63;;;2.09;92.79
73981;BME280;62348;51.412;5.436;2022-12-05T05:49:51;101665.78;;;2.10;92.76
73981;BME280;62348;51.412;5.436;2022-12-05T05:52:16;101663.31;;;2.09;92.97
73981;BME280;62348;51.412;5.436;2022-12-05T05:54:41;101660.25;;;2.12;92.67
73981;BME280;62348;51.412;5.436;2022-12-05T05:57:07;101664.13;;;2.09;92.85
73981;BME280;62348;51.412;5.436;2022-12-05T05:59:32;101665.78;;;2.10;93.09
73981;BME280;62348;51.412;5.436;2022-12-05T06:01:57;101660.44;;;2.10;93.23
73981;BME280;62348;51.412;5.436;2022-12-05T06:04:23;101656.94;;;2.10;93.30
73981;BME280;62348;51.412;5.436;2022-12-05T06:06:48;101662.28;;;2.10;93.57
73981;BME280;62348;51.412;5.436;2022-12-05T06:09:14;101658.63;;;2.11;93.27
73981;BME280;62348;51.412;5.436;2022-12-05T06:11:39;101671.09;;;2.10;93.11
73981;BME280;62348;51.412;5.436;2022-12-05T06:14:04;101669.47;;;2.09;93.42
73981;BME280;62348;51.412;5.436;2022-12-05T06:16:30;101665.78;;;2.10;93.17
73981;BME280;62348;51.412;5.436;2022-12-05T06:18:57;101671.09;;;2.10;93.58
73981;BME280;62348;51.412;5.436;2022-12-05T06:21:22;101665.97;;;2.09;93.49
73981;BME280;62348;51.412;5.436;2022-12-05T06:23:48;101671.94;;;2.11;93.79
73981;BME280;62348;51.412;5.436;2022-12-05T06:26:16;101674.41;;;2.12;93.54
73981;BME280;62348;51.412;5.436;2022-12-05T06:28:42;101674.41;;;2.12;93.72
73981;BME280;62348;51.412;5.436;2022-12-05T06:31:17;101676.72;;;2.15;93.95
73981;BME280;62348;51.412;5.436;2022-12-05T06:33:43;101674.88;;;2.16;94.14
73981;BME280;62348;51.412;5.436;2022-12-05T06:36:15;101670.38;;;2.17;93.87
73981;BME280;62348;51.412;5.436;2022-12-05T06:38:41;101680.22;;;2.16;93.72
73981;BME280;62348;51.412;5.436;2022-12-05T06:41:12;101678.19;;;2.18;93.79
73981;BME280;62348;51.412;5.436;2022-12-05T06:43:38;101674.53;;;2.19;93.33
73981;BME280;62348;51.412;5.436;2022-12-05T06:46:05;101679.84;;;2.19;93.48
73981;BME280;62348;51.412;5.436;2022-12-05T06:48:31;101681.53;;;2.20;93.64
73981;BME280;62348;51.412;5.436;2022-12-05T06:50:56;101679.03;;;2.19;93.57
73981;BME280;62348;51.412;5.436;2022-12-05T06:53:22;101677.38;;;2.18;93.48
73981;BME280;62348;51.412;5.436;2022-12-05T06:55:59;101684.19;;;2.20;93.62
73981;BME280;62348;51.412;5.436;2022-12-05T06:58:26;101680.69;;;2.20;93.58
73981;BME280;62348;51.412;5.436;2022-12-05T07:00:52;101677.19;;;2.19;93.97
73981;BME280;62348;51.412;5.436;2022-12-05T07:03:36;101683.97;;;2.22;93.52
73981;BME280;62348;51.412;5.436;2022-12-05T07:06:05;101689.31;;;2.22;94.10
73981;BME280;62348;51.412;5.436;2022-12-05T07:08:32;101693.66;;;2.23;93.71
73981;BME280;62348;51.412;5.436;2022-12-05T07:10:58;101690.16;;;2.22;93.67
73981;BME280;62348;51.412;5.436;2022-12-05T07:13:23;101694.66;;;2.22;93.68
73981;BME280;62348;51.412;5.436;2022-12-05T07:15:49;101694.47;;;2.23;93.80
73981;BME280;62348;51.412;5.436;2022-12-05T07:18:16;101705.16;;;2.23;93.84
73981;BME280;62348;51.412;5.436;2022-12-05T07:20:42;101714.66;;;2.26;93.96
73981;BME280;62348;51.412;5.436;2022-12-05T07:23:08;101713.81;;;2.25;93.50
73981;BME280;62348;51.412;5.436;2022-12-05T07:25:38;101720.00;;;2.26;93.73
73981;BME280;62348;51.412;5.436;2022-12-05T07:28:04;101723.47;;;2.26;94.04
73981;BME280;62348;51.412;5.436;2022-12-05T07:30:29;101722.66;;;2.26;93.68
73981;BME280;62348;51.412;5.436;2022-12-05T07:32:54;101725.13;;;2.27;93.75
73981;BME280;62348;51.412;5.436;2022-12-05T07:35:20;101726.97;;;2.27;93.70
73981;BME280;62348;51.412;5.436;2022-12-05T07:37:45;101726.78;;;2.28;93.78
73981;BME280;62348;51.412;5.436;2022-12-05T07:40:11;101727.59;;;2.29;93.87
73981;BME280;62348;51.412;5.436;2022-12-05T07:42:36;101718.78;;;2.28;93.82
73981;BME280;62348;51.412;5.436;2022-12-05T07:45:02;101721.06;;;2.31;94.00
73981;BME280;62348;51.412;5.436;2022-12-05T07:47:29;101723.72;;;2.31;93.80
73981;BME280;62348;51.412;5.436;2022-12-05T07:49:55;101724.59;;;2.32;93.91
73981;BME280;62348;51.412;5.436;2022-12-05T07:52:20;101726.41;;;2.31;93.73
73981;BME280;62348;51.412;5.436;2022-12-05T07:54:45;101723.09;;;2.29;93.53
73981;BME280;62348;51.412;5.436;2022-12-05T07:57:11;101731.94;;;2.30;93.95
73981;BME280;62348;51.412;5.436;2022-12-05T07:59:36;101730.91;;;2.31;93.97
73981;BME280;62348;51.412;5.436;2022-12-05T08:02:02;101738.94;;;2.31;93.76
73981;BME280;62348;51.412;5.436;2022-12-05T08:04:27;101735.25;;;2.32;94.03
73981;BME280;62348;51.412;5.436;2022-12-05T08:06:53;101731.56;;;2.33;93.99
73981;BME280;62348;51.412;5.436;2022-12-05T08:09:18;101735.06;;;2.33;94.09
73981;BME280;62348;51.412;5.436;2022-12-05T08:11:43;101740.41;;;2.33;94.13
73981;BME280;62348;51.412;5.436;2022-12-05T08:14:09;101742.88;;;2.35;94.23
73981;BME280;62348;51.412;5.436;2022-12-05T08:16:35;101740.22;;;2.35;93.94
73981;BME280;62348;51.412;5.436;2022-12-05T08:19:05;101748.22;;;2.35;94.31
73981;BME280;62348;51.412;5.436;2022-12-05T08:21:32;101750.53;;;2.38;94.21
73981;BME280;62348;51.412;5.436;2022-12-05T08:23:59;101754.19;;;2.37;94.13
73981;BME280;62348;51.412;5.436;2022-12-05T08:26:29;101758.19;;;2.41;94.20
73981;BME280;62348;51.412;5.436;2022-12-05T08:29:08;101766.84;;;2.43;94.03
73981;BME280;62348;51.412;5.436;2022-12-05T08:31:38;101763.31;;;2.43;94.32
73981;BME280;62348;51.412;5.436;2022-12-05T08:34:04;101763.97;;;2.45;94.22
73981;BME280;62348;51.412;5.436;2022-12-05T08:36:30;101772.63;;;2.47;93.95
73981;BME280;62348;51.412;5.436;2022-12-05T08:38:58;101770.97;;;2.46;94.22
73981;BME280;62348;51.412;5.436;2022-12-05T08:41:23;101767.28;;;2.47;94.07
73981;BME280;62348;51.412;5.436;2022-12-05T08:43:56;101774.28;;;2.48;93.71
73981;BME280;62348;51.412;5.436;2022-12-05T08:46:22;101772.41;;;2.48;93.89
73981;BME280;62348;51.412;5.436;2022-12-05T08:48:48;101766.44;;;2.46;93.66
73981;BME280;62348;51.412;5.436;2022-12-05T08:51:13;101768.13;;;2.47;93.64
73981;BME280;62348;51.412;5.436;2022-12-05T08:53:39;101781.47;;;2.47;93.93
73981;BME280;62348;51.412;5.436;2022-12-05T08:56:06;101773.63;;;2.46;94.02
73981;BME280;62348;51.412;5.436;2022-12-05T08:58:33;101781.28;;;2.49;94.09
73981;BME280;62348;51.412;5.436;2022-12-05T09:03:29;101785.59;;;2.50;93.86
73981;BME280;62348;51.412;5.436;2022-12-05T09:06:05;101785.59;;;2.50;94.31
73981;BME280;62348;51.412;5.436;2022-12-05T09:08:30;101794.47;;;2.50;94.17
73981;BME280;62348;51.412;5.436;2022-12-05T09:10:56;101790.13;;;2.49;93.64
73981;BME280;62348;51.412;5.436;2022-12-05T09:13:21;101787.44;;;2.49;93.96
73981;BME280;62348;51.412;5.436;2022-12-05T09:15:46;101792.59;;;2.51;94.10
73981;BME280;62348;51.412;5.436;2022-12-05T09:18:14;101790.94;;;2.50;94.11
73981;BME280;62348;51.412;5.436;2022-12-05T09:20:39;101797.75;;;2.52;94.10
73981;BME280;62348;51.412;5.436;2022-12-05T09:23:05;101802.06;;;2.53;94.51
73981;BME280;62348;51.412;5.436;2022-12-05T09:25:31;101797.56;;;2.54;94.39
73981;BME280;62348;51.412;5.436;2022-12-05T09:27:56;101802.06;;;2.53;94.33
73981;BME280;62348;51.412;5.436;2022-12-05T09:30:22;101803.53;;;2.56;94.29
73981;BME280;62348;51.412;5.436;2022-12-05T09:32:47;101806.03;;;2.58;94.19
73981;BME280;62348;51.412;5.436;2022-12-05T09:35:12;101803.34;;;2.58;94.24
73981;BME280;62348;51.412;5.436;2022-12-05T09:37:38;101801.72;;;2.57;94.42
73981;BME280;62348;51.412;5.436;2022-12-05T09:40:04;101805.22;;;2.57;94.50
73981;BME280;62348;51.412;5.436;2022-12-05T09:45:32;101811.19;;;2.59;94.39
73981;BME280;62348;51.412;5.436;2022-12-05T09:48:10;101816.19;;;2.62;94.26
73981;BME280;62348;51.412;5.436;2022-12-05T09:50:43;101815.16;;;2.63;94.29
73981;BME280;62348;51.412;5.436;2022-12-05T09:55:54;101811.66;;;2.63;94.31
73981;BME280;62348;51.412;5.436;2022-12-05T09:58:25;101814.31;;;2.63;94.33
73981;BME280;62348;51.412;5.436;2022-12-05T10:01:14;101816.19;;;2.62;94.54
73981;BME280;62348;51.412;5.436;2022-12-05T10:04:06;101814.63;;;2.68;94.44
73981;BME280;62348;51.412;5.436;2022-12-05T10:07:00;101813.59;;;2.69;94.37
73981;BME280;62348;51.412;5.436;2022-12-05T10:09:44;101811.75;;;2.69;94.18
73981;BME280;62348;51.412;5.436;2022-12-05T10:17:51;101809.63;;;2.80;93.57
73981;BME280;62348;51.412;5.436;2022-12-05T10:20:27;101813.50;;;2.77;93.82
73981;BME280;62348;51.412;5.436;2022-12-05T10:23:17;101820.50;;;2.78;93.90
73981;BME280;62348;51.412;5.436;2022-12-05T10:25:44;101815.16;;;2.78;94.14
73981;BME280;62348;51.412;5.436;2022-12-05T10:28:19;101820.66;;;2.77;93.83
73981;BME280;62348;51.412;5.436;2022-12-05T10:30:54;101814.31;;;2.78;93.82
73981;BME280;62348;51.412;5.436;2022-12-05T10:33:23;101815.16;;;2.78;93.16
73981;BME280;62348;51.412;5.436;2022-12-05T10:35:52;101825.19;;;2.76;93.58
73981;BME280;62348;51.412;5.436;2022-12-05T10:38:27;101816.34;;;2.76;93.10
73981;BME280;62348;51.412;5.436;2022-12-05T10:40:59;101814.50;;;2.76;93.51
73981;BME280;62348;51.412;5.436;2022-12-05T10:43:29;101820.84;;;2.75;93.00
73981;BME280;62348;51.412;5.436;2022-12-05T10:45:56;101815.31;;;2.77;93.39
73981;BME280;62348;51.412;5.436;2022-12-05T10:48:22;101820.66;;;2.77;93.34
73981;BME280;62348;51.412;5.436;2022-12-05T10:50:53;101828.50;;;2.78;93.23
73981;BME280;62348;51.412;5.436;2022-12-05T10:53:28;101815.16;;;2.78;93.87
73981;BME280;62348;51.412;5.436;2022-12-05T10:55:56;101819.50;;;2.79;93.95
73981;BME280;62348;51.412;5.436;2022-12-05T10:58:27;101819.28;;;2.81;94.00
73981;BME280;62348;51.412;5.436;2022-12-05T11:00:56;101813.94;;;2.81;93.56
73981;BME280;62348;51.412;5.436;2022-12-05T11:05:58;101815.25;;;2.85;93.64
73981;BME280;62348;51.412;5.436;2022-12-05T11:08:27;101808.06;;;2.85;93.81
73981;BME280;62348;51.412;5.436;2022-12-05T11:13:53;101806.84;;;2.88;93.52
73981;BME280;62348;51.412;5.436;2022-12-05T11:16:29;101808.69;;;2.87;93.24
73981;BME280;62348;51.412;5.436;2022-12-05T11:18:55;101815.03;;;2.86;93.75
73981;BME280;62348;51.412;5.436;2022-12-05T11:21:21;101809.50;;;2.88;93.80
73981;BME280;62348;51.412;5.436;2022-12-05T11:23:47;101806.84;;;2.88;93.73
73981;BME280;62348;51.412;5.436;2022-12-05T11:26:39;101809.16;;;2.91;93.79
73981;BME280;62348;51.412;5.436;2022-12-05T11:29:28;101807.47;;;2.90;93.61
73981;BME280;62348;51.412;5.436;2022-12-05T11:31:53;101810.38;;;2.88;93.19
73981;BME280;62348;51.412;5.436;2022-12-05T11:34:21;101813.22;;;2.87;93.59
73981;BME280;62348;51.412;5.436;2022-12-05T11:36:53;101813.22;;;2.87;93.36
73981;BME280;62348;51.412;5.436;2022-12-05T11:39:20;101804.44;;;2.93;93.05
73981;BME280;62348;51.412;5.436;2022-12-05T11:42:12;101800.13;;;2.92;93.34
73981;BME280;62348;51.412;5.436;2022-12-05T11:45:00;101805.66;;;2.90;93.08
73981;BME280;62348;51.412;5.436;2022-12-05T11:50:27;101804.81;;;2.90;93.23
73981;BME280;62348;51.412;5.436;2022-12-05T11:53:10;101803.63;;;2.92;93.60
73981;BME280;62348;51.412;5.436;2022-12-05T11:55:53;101803.81;;;2.91;93.53
73981;BME280;62348;51.412;5.436;2022-12-05T11:58:28;101799.38;;;2.98;93.09
73981;BME280;62348;51.412;5.436;2022-12-05T12:01:11;101801.59;;;2.95;93.38
73981;BME280;62348;51.412;5.436;2022-12-05T12:18:38;101809.63;;;2.95;93.05
73981;BME280;62348;51.412;5.436;2022-12-05T12:21:24;101798.09;;;2.94;93.14
73981;BME280;62348;51.412;5.436;2022-12-05T12:23:57;101804.44;;;2.93;93.01
73981;BME280;62348;51.412;5.436;2022-12-05T12:34:37;101798.47;;;2.91;92.53
73981;BME280;62348;51.412;5.436;2022-12-05T12:37:24;101796.44;;;2.93;92.82
73981;BME280;62348;51.412;5.436;2022-12-05T12:45:34;101791.09;;;2.93;92.79
73981;BME280;62348;51.412;5.436;2022-12-05T12:48:34;101787.22;;;2.96;92.60
73981;BME280;62348;51.412;5.436;2022-12-05T12:51:10;101788.25;;;2.95;92.98
73981;BME280;62348;51.412;5.436;2022-12-05T13:01:42;101783.53;;;2.97;92.63
73981;BME280;62348;51.412;5.436;2022-12-05T13:04:18;101787.03;;;2.97;92.83
73981;BME280;62348;51.412;5.436;2022-12-05T13:09:42;101778.19;;;2.97;92.96
73981;BME280;62348;51.412;5.436;2022-12-05T13:12:13;101776.53;;;2.96;93.47
73981;BME280;62348;51.412;5.436;2022-12-05T13:14:48;101776.34;;;2.97;93.43
73981;BME280;62348;51.412;5.436;2022-12-05T13:17:17;101778.00;;;2.98;93.59
73981;BME280;62348;51.412;5.436;2022-12-05T13:19:49;101776.97;;;2.99;93.83
73981;BME280;62348;51.412;5.436;2022-12-05T13:22:20;101775.13;;;3.00;93.51
73981;BME280;62348;51.412;5.436;2022-12-05T13:24:46;101770.81;;;2.99;93.67
73981;BME280;62348;51.412;5.436;2022-12-05T13:27:16;101770.63;;;3.00;93.66
73981;BME280;62348;51.412;5.436;2022-12-05T13:30:03;101773.13;;;3.02;93.82
73981;BME280;62348;51.412;5.436;2022-12-05T13:32:33;101774.31;;;2.99;93.86
73981;BME280;62348;51.412;5.436;2022-12-05T13:35:08;101780.09;;;3.03;93.82
73981;BME280;62348;51.412;5.436;2022-12-05T13:37:34;101781.16;;;3.02;94.10
73981;BME280;62348;51.412;5.436;2022-12-05T13:40:34;101779.09;;;3.04;94.14
73981;BME280;62348;51.412;5.436;2022-12-05T13:43:24;101783.41;;;3.05;94.11
73981;BME280;62348;51.412;5.436;2022-12-05T13:46:10;101783.41;;;3.05;93.58
73981;BME280;62348;51.412;5.436;2022-12-05T13:48:40;101784.44;;;3.04;93.74
73981;BME280;62348;51.412;5.436;2022-12-05T13:51:12;101784.44;;;3.04;93.84
73981;BME280;62348;51.412;5.436;2022-12-05T13:53:48;101779.09;;;3.04;94.17
73981;BME280;62348;51.412;5.436;2022-12-05T13:56:26;101787.59;;;3.07;94.83
73981;BME280;62348;51.412;5.436;2022-12-05T13:58:54;101784.69;;;3.09;94.44
73981;BME280;62348;51.412;5.436;2022-12-05T15:11:46;101815.59;;;2.97;94.75
73981;BME280;62348;51.412;5.436;2022-12-05T15:14:19;101813.94;;;2.96;95.49
73981;BME280;62348;51.412;5.436;2022-12-05T15:16:46;101813.94;;;2.96;95.27
73981;BME280;62348;51.412;5.436;2022-12-05T15:19:51;101805.72;;;2.97;95.40
73981;BME280;62348;51.412;5.436;2022-12-05T15:22:20;101814.56;;;2.98;95.59
73981;BME280;62348;51.412;5.436;2022-12-05T15:24:46;101814.38;;;2.99;95.84
73981;BME280;62348;51.412;5.436;2022-12-05T15:27:12;101815.22;;;3.00;96.06
73981;BME280;62348;51.412;5.436;2022-12-05T15:29:39;101821.22;;;3.02;95.95
73981;BME280;62348;51.412;5.436;2022-12-05T15:32:15;101821.00;;;3.03;96.39
73981;BME280;62348;51.412;5.436;2022-12-05T15:34:59;101818.78;;;3.07;96.13
73981;BME280;62348;51.412;5.436;2022-12-05T15:40:14;101829.13;;;3.10;96.22
73981;BME280;62348;51.412;5.436;2022-12-05T15:42:50;101823.59;;;3.11;96.27
73981;BME280;62348;51.412;5.436;2022-12-05T15:45:28;101826.09;;;3.13;96.12
73981;BME280;62348;51.412;5.436;2022-12-05T15:50:42;101821.00;;;3.18;96.36
73981;BME280;62348;51.412;5.436;2022-12-05T15:55:49;101825.34;;;3.19;96.06
73981;BME280;62348;51.412;5.436;2022-12-05T15:58:26;101834.00;;;3.21;96.31
73981;BME280;62348;51.412;5.436;2022-12-05T16:00:56;101837.47;;;3.22;96.23
73981;BME280;62348;51.412;5.436;2022-12-05T16:03:38;101832.97;;;3.22;96.12
73981;BME280;62348;51.412;5.436;2022-12-05T16:06:11;101829.28;;;3.23;95.84
73981;BME280;62348;51.412;5.436;2022-12-05T16:08:48;101832.78;;;3.24;96.34
73981;BME280;62348;51.412;5.436;2022-12-05T16:11:15;101835.25;;;3.25;96.02
73981;BME280;62348;51.412;5.436;2022-12-05T16:13:46;101838.56;;;3.27;96.06